createdAt,value
2023-03-15T00:01:35.963Z,56.02
2023-03-15T00:03:08.919Z,57.08
2023-03-15T00:04:41.105Z,59.26
2023-03-15T00:06:25.002Z,61.34
2023-03-15T00:08:04.410Z,63.65
2023-03-15T00:09:34.768Z,65.23
2023-03-15T00:11:02.297Z,62.97
2023-03-15T00:12:31.241Z,60.21
2023-03-15T00:14:04.196Z,57.48
2023-03-15T00:15:36.510Z,56.31
2023-03-15T00:16:57.326Z,57.38
2023-03-15T00:18:17.929Z,58.79
2023-03-15T00:19:49.814Z,60.68
2023-03-15T00:21:33.482Z,63.14
2023-03-15T00:23:17.197Z,65.41
2023-03-15T00:24:37.822Z,63.80
2023-03-15T00:26:09.820Z,60.94
2023-03-15T00:27:41.813Z,58.45
2023-03-15T00:29:02.556Z,56.41
2023-03-15T00:30:42.001Z,57.36
2023-03-15T00:32:16.417Z,59.15
2023-03-15T00:33:57.506Z,61.31
2023-03-15T00:35:38.744Z,63.73
2023-03-15T00:37:22.439Z,65.28
2023-03-15T00:38:57.077Z,63.10
2023-03-15T00:40:17.312Z,60.07
2023-03-15T00:41:52.142Z,57.48
2023-03-15T00:43:31.632Z,56.68
2023-03-15T00:45:16.134Z,58.48
2023-03-15T00:46:48.449Z,60.63
2023-03-15T00:48:21.570Z,62.64
2023-03-15T00:49:44.780Z,64.99
2023-03-15T00:51:07.804Z,65.00
2023-03-15T00:52:41.268Z,62.40
2023-03-15T00:54:13.118Z,59.51
2023-03-15T00:55:45.124Z,56.81
2023-03-15T00:57:13.129Z,56.43
2023-03-15T00:58:52.856Z,57.69
2023-03-15T01:00:25.294Z,59.57
2023-03-15T01:01:48.245Z,61.62
2023-03-15T01:03:20.890Z,64.20
2023-03-15T01:05:04.510Z,65.22
2023-03-15T01:06:24.919Z,63.25
2023-03-15T01:08:05.953Z,60.67
2023-03-15T01:09:49.330Z,57.26
2023-03-15T01:11:23.421Z,56.60
2023-03-15T01:12:48.228Z,58.22
2023-03-15T01:14:21.455Z,60.36
2023-03-15T01:15:55.324Z,62.01
2023-03-15T01:17:26.940Z,65.07
2023-03-15T01:19:07.971Z,65.34
2023-03-15T01:20:48.247Z,62.61
2023-03-15T01:22:20.355Z,59.49
2023-03-15T01:23:52.343Z,57.20
2023-03-15T01:25:22.296Z,56.71
2023-03-15T01:26:50.714Z,58.25
2023-03-15T01:28:30.510Z,60.38
2023-03-15T01:30:02.808Z,62.37
2023-03-15T01:31:23.114Z,64.85
2023-03-15T01:32:43.937Z,65.27
2023-03-15T01:34:15.992Z,63.41
2023-03-15T01:35:36.148Z,60.53
2023-03-15T01:37:07.972Z,58.32
2023-03-15T01:38:33.843Z,56.67
2023-03-15T01:40:09.095Z,57.84
2023-03-15T01:41:41.034Z,59.40
2023-03-15T01:43:01.522Z,61.29
2023-03-15T01:44:23.392Z,63.16
2023-03-15T01:45:57.832Z,65.34
2023-03-15T01:47:32.294Z,64.02
2023-03-15T01:48:54.862Z,61.56
2023-03-15T01:50:24.658Z,58.93
2023-03-15T01:51:45.510Z,56.95
2023-03-15T01:53:06.551Z,56.93
2023-03-15T01:54:29.574Z,58.39
2023-03-15T01:56:00.100Z,60.18
2023-03-15T01:57:38.254Z,62.47
2023-03-15T01:59:00.819Z,64.87
2023-03-15T02:00:21.029Z,65.32
2023-03-15T02:02:10.739Z,62.72
2023-03-15T02:03:42.973Z,59.85
2023-03-15T02:05:10.332Z,56.96
2023-03-15T02:06:45.977Z,56.62
2023-03-15T02:08:18.397Z,58.14
2023-03-15T02:09:50.787Z,60.05
2023-03-15T02:11:30.918Z,62.00
2023-03-15T02:13:01.213Z,64.18
2023-03-15T02:14:35.727Z,64.66
2023-03-15T02:16:19.491Z,61.85
2023-03-15T02:17:51.325Z,58.74
2023-03-15T02:19:12.022Z,56.40
2023-03-15T02:20:44.183Z,56.62
2023-03-15T02:22:16.938Z,58.31
2023-03-15T02:23:39.771Z,59.96
2023-03-15T02:25:11.940Z,61.85
2023-03-15T02:26:43.569Z,64.00
2023-03-15T02:28:04.182Z,64.99
2023-03-15T02:29:48.971Z,63.24
2023-03-15T02:31:26.035Z,59.74
2023-03-15T02:33:09.435Z,56.57
2023-03-15T02:34:52.853Z,56.54
2023-03-15T02:36:13.702Z,58.18
2023-03-15T02:37:57.660Z,59.95
2023-03-15T02:39:20.367Z,61.66
2023-03-15T02:41:04.149Z,63.78
2023-03-15T02:42:35.929Z,64.65
2023-03-15T02:43:56.317Z,62.73
2023-03-15T02:45:35.926Z,59.28
2023-03-15T02:47:03.791Z,56.51
2023-03-15T02:48:31.762Z,56.50
2023-03-15T02:50:11.296Z,57.56
2023-03-15T02:51:34.052Z,59.07
2023-03-15T02:53:02.416Z,60.53
2023-03-15T02:54:46.140Z,62.34
2023-03-15T02:56:29.877Z,64.78
2023-03-15T02:58:09.575Z,63.50
2023-03-15T02:59:49.965Z,59.89
2023-03-15T03:01:24.387Z,56.33
2023-03-15T03:03:05.477Z,55.82
2023-03-15T03:04:37.643Z,57.37
2023-03-15T03:06:23.279Z,59.06
2023-03-15T03:08:04.571Z,60.85
2023-03-15T03:09:39.927Z,62.30
2023-03-15T03:11:12.225Z,64.43
2023-03-15T03:13:05.949Z,64.16
2023-03-15T03:14:54.279Z,60.10
2023-03-15T03:16:27.519Z,56.24
2023-03-15T03:17:59.324Z,55.72
2023-03-15T03:19:25.180Z,57.06
2023-03-15T03:21:08.831Z,58.77
2023-03-15T03:22:48.287Z,60.46
2023-03-15T03:24:32.825Z,62.14
2023-03-15T03:26:12.159Z,64.66
2023-03-15T03:27:52.132Z,64.32
2023-03-15T03:29:32.161Z,61.01
2023-03-15T03:31:07.376Z,57.63
2023-03-15T03:32:37.181Z,55.90
2023-03-15T03:34:09.898Z,56.62
2023-03-15T03:35:42.668Z,58.14
2023-03-15T03:37:14.942Z,59.77
2023-03-15T03:39:03.588Z,61.55
2023-03-15T03:40:31.636Z,63.72
2023-03-15T03:42:16.128Z,64.50
2023-03-15T03:44:00.117Z,61.61
2023-03-15T03:45:51.964Z,57.94
2023-03-15T03:47:36.238Z,55.90
2023-03-15T03:49:19.987Z,56.95
2023-03-15T03:50:52.058Z,58.81
2023-03-15T03:52:24.604Z,60.39
2023-03-15T03:53:59.584Z,62.16
2023-03-15T03:55:40.991Z,63.97
2023-03-15T03:57:25.057Z,64.31
2023-03-15T03:58:57.125Z,60.86
2023-03-15T04:00:54.704Z,57.42
2023-03-15T04:02:39.205Z,55.89
2023-03-15T04:04:25.160Z,57.26
2023-03-15T04:05:56.274Z,58.92
2023-03-15T04:07:40.882Z,60.85
2023-03-15T04:09:24.557Z,62.73
2023-03-15T04:11:09.792Z,64.79
2023-03-15T04:12:32.533Z,62.97
2023-03-15T04:14:12.319Z,59.94
2023-03-15T04:15:56.769Z,56.12
2023-03-15T04:17:21.343Z,55.44
2023-03-15T04:19:01.430Z,56.70
2023-03-15T04:20:56.265Z,58.54
2023-03-15T04:22:30.746Z,60.57
2023-03-15T04:24:10.078Z,62.33
2023-03-15T04:26:01.141Z,64.70
2023-03-15T04:28:02.427Z,62.82
2023-03-15T04:29:54.522Z,59.06
2023-03-15T04:31:53.837Z,55.77
2023-03-15T04:33:35.483Z,56.55
2023-03-15T04:34:56.298Z,58.06
2023-03-15T04:36:47.280Z,59.97
2023-03-15T04:38:46.377Z,62.11
2023-03-15T04:40:18.818Z,64.24
2023-03-15T04:41:59.147Z,64.74
2023-03-15T04:43:41.125Z,61.20
2023-03-15T04:45:29.212Z,57.62
2023-03-15T04:47:24.561Z,55.78
2023-03-15T04:49:50.526Z,57.63
2023-03-15T04:51:55.681Z,59.98
2023-03-15T04:54:11.660Z,62.55
2023-03-15T04:56:19.622Z,64.97
2023-03-15T04:58:14.682Z,62.63
2023-03-15T05:00:09.954Z,58.19
2023-03-15T05:02:22.910Z,55.96
2023-03-15T05:04:44.757Z,57.85
2023-03-15T05:06:35.911Z,59.86
2023-03-15T05:08:20.894Z,61.94
2023-03-15T05:10:34.158Z,64.64
2023-03-15T05:12:27.277Z,63.17
2023-03-15T05:14:07.165Z,59.55
2023-03-15T05:15:39.142Z,56.66
2023-03-15T05:17:33.081Z,56.43
2023-03-15T05:20:17.910Z,58.85
2023-03-15T05:22:08.481Z,61.05
2023-03-15T05:23:57.833Z,63.40
2023-03-15T05:26:01.084Z,64.98
2023-03-15T05:28:12.477Z,60.82
2023-03-15T05:30:03.283Z,56.81
2023-03-15T05:32:03.720Z,56.20
2023-03-15T05:33:45.878Z,57.73
2023-03-15T05:36:00.078Z,60.36
2023-03-15T05:37:51.192Z,62.39
2023-03-15T05:39:47.881Z,64.95
2023-03-15T05:41:40.353Z,63.29
2023-03-15T05:43:35.478Z,59.42
2023-03-15T05:45:25.595Z,56.04
2023-03-15T05:47:43.054Z,57.14
2023-03-15T05:49:35.097Z,59.00
2023-03-15T05:51:14.785Z,61.06
2023-03-15T05:53:44.168Z,63.84
2023-03-15T05:55:40.954Z,64.61
2023-03-15T05:57:39.374Z,60.77
2023-03-15T05:59:34.161Z,56.70
2023-03-15T06:01:09.374Z,55.67
2023-03-15T06:02:49.849Z,57.28
2023-03-15T06:04:24.787Z,58.93
2023-03-15T06:06:05.586Z,60.57
2023-03-15T06:07:53.831Z,62.61
2023-03-15T06:09:26.070Z,65.00
2023-03-15T06:10:59.045Z,63.94
2023-03-15T06:12:33.626Z,60.55
2023-03-15T06:14:08.054Z,57.23
2023-03-15T06:15:40.563Z,55.63
2023-03-15T06:17:24.374Z,56.46
2023-03-15T06:19:08.412Z,58.63
2023-03-15T06:20:42.527Z,60.48
2023-03-15T06:22:20.004Z,62.54
2023-03-15T06:24:09.526Z,64.99
2023-03-15T06:25:53.499Z,63.60
2023-03-15T06:27:21.145Z,60.12
2023-03-15T06:28:56.656Z,56.43
2023-03-15T06:30:17.487Z,55.52
2023-03-15T06:31:50.461Z,56.45
2023-03-15T06:33:35.155Z,58.39
2023-03-15T06:35:07.753Z,60.19
2023-03-15T06:36:40.385Z,61.79
2023-03-15T06:38:20.102Z,64.13
2023-03-15T06:39:52.140Z,65.08
2023-03-15T06:41:32.523Z,62.16
2023-03-15T06:43:22.759Z,57.86
2023-03-15T06:45:05.620Z,55.62
2023-03-15T06:46:49.653Z,56.53
2023-03-15T06:48:33.856Z,58.22
2023-03-15T06:50:14.261Z,60.10
2023-03-15T06:51:48.134Z,61.64
2023-03-15T06:53:20.350Z,63.56
2023-03-15T06:54:55.065Z,64.70
2023-03-15T06:56:29.688Z,62.72
2023-03-15T06:58:17.929Z,58.86
2023-03-15T06:59:40.863Z,55.75
2023-03-15T07:01:15.585Z,55.76
2023-03-15T07:02:59.332Z,57.03
2023-03-15T07:04:19.209Z,58.71
2023-03-15T07:06:04.975Z,60.47
2023-03-15T07:07:49.182Z,62.26
2023-03-15T07:09:32.817Z,64.62
2023-03-15T07:11:07.430Z,64.06
2023-03-15T07:12:50.920Z,60.30
2023-03-15T07:14:30.628Z,56.51
2023-03-15T07:16:14.436Z,55.73
2023-03-15T07:17:46.711Z,57.20
2023-03-15T07:19:30.923Z,58.53
2023-03-15T07:21:02.708Z,60.43
2023-03-15T07:22:47.736Z,61.63
2023-03-15T07:24:31.873Z,63.55
2023-03-15T07:26:03.926Z,64.64
2023-03-15T07:27:38.294Z,62.32
2023-03-15T07:29:17.845Z,58.29
2023-03-15T07:30:47.400Z,55.75
2023-03-15T07:32:31.318Z,55.90
2023-03-15T07:34:16.906Z,57.60
2023-03-15T07:35:49.028Z,59.19
2023-03-15T07:37:33.153Z,60.55
2023-03-15T07:39:05.155Z,61.59
2023-03-15T07:40:30.105Z,62.91
2023-03-15T07:42:14.365Z,64.61
2023-03-15T07:43:59.775Z,62.35
2023-03-15T07:45:43.315Z,58.39
2023-03-15T07:47:11.272Z,55.40
2023-03-15T07:48:43.357Z,55.81
2023-03-15T07:50:17.154Z,56.98
2023-03-15T07:52:06.416Z,58.46
2023-03-15T07:53:45.906Z,60.08
2023-03-15T07:55:13.773Z,61.25
2023-03-15T07:56:47.968Z,62.04
2023-03-15T07:58:31.547Z,63.88
2023-03-15T08:00:03.731Z,63.24
2023-03-15T08:01:40.062Z,60.02
2023-03-15T08:03:14.848Z,55.70
2023-03-15T08:05:07.097Z,54.57
2023-03-15T08:06:55.928Z,55.62
2023-03-15T08:08:39.898Z,57.77
2023-03-15T08:10:24.989Z,59.20
2023-03-15T08:12:08.794Z,60.46
2023-03-15T08:13:36.611Z,61.73
2023-03-15T08:15:20.495Z,62.58
2023-03-15T08:16:52.541Z,64.26
2023-03-15T08:18:44.455Z,62.76
2023-03-15T08:20:05.782Z,58.90
2023-03-15T08:21:26.365Z,54.88
2023-03-15T08:22:58.857Z,53.94
2023-03-15T08:24:29.121Z,54.75
2023-03-15T08:26:01.268Z,56.33
2023-03-15T08:27:21.922Z,57.27
2023-03-15T08:29:01.874Z,58.43
2023-03-15T08:30:33.770Z,59.91
2023-03-15T08:32:17.708Z,60.87
2023-03-15T08:33:49.396Z,61.58
2023-03-15T08:35:33.512Z,62.38
2023-03-15T08:36:54.723Z,63.23
2023-03-15T08:38:26.875Z,63.62
2023-03-15T08:40:10.602Z,59.20
2023-03-15T08:42:03.105Z,55.19
2023-03-15T08:43:35.510Z,55.11
2023-03-15T08:45:16.906Z,56.19
2023-03-15T08:46:47.244Z,57.32
2023-03-15T08:48:09.962Z,57.55
2023-03-15T08:49:30.809Z,58.38
2023-03-15T08:51:08.810Z,59.39
2023-03-15T08:53:01.924Z,60.13
2023-03-15T08:54:45.638Z,60.78
2023-03-15T08:56:30.469Z,61.43
2023-03-15T08:58:14.073Z,62.10
2023-03-15T09:00:07.915Z,62.72
2023-03-15T09:01:51.421Z,63.49
2023-03-15T09:03:30.871Z,60.08
2023-03-15T09:05:15.489Z,55.20
2023-03-15T09:06:50.714Z,54.27
2023-03-15T09:08:22.838Z,55.05
2023-03-15T09:10:07.872Z,56.10
2023-03-15T09:12:00.884Z,57.43
2023-03-15T09:13:30.723Z,58.23
2023-03-15T09:15:12.634Z,59.09
2023-03-15T09:17:01.002Z,59.81
2023-03-15T09:18:52.953Z,60.52
2023-03-15T09:20:39.098Z,61.43
2023-03-15T09:22:23.398Z,62.08
2023-03-15T09:23:56.093Z,63.41
2023-03-15T09:25:47.757Z,63.50
2023-03-15T09:27:31.830Z,59.65
2023-03-15T09:29:15.659Z,55.21
2023-03-15T09:31:08.661Z,53.91
2023-03-15T09:32:57.832Z,55.10
2023-03-15T09:34:18.595Z,56.45
2023-03-15T09:36:10.653Z,57.38
2023-03-15T09:37:56.050Z,58.41
2023-03-15T09:39:28.260Z,58.93
2023-03-15T09:41:11.723Z,59.73
2023-03-15T09:43:03.569Z,60.67
2023-03-15T09:44:47.328Z,61.67
2023-03-15T09:46:31.173Z,61.79
2023-03-15T09:47:51.812Z,62.37
2023-03-15T09:49:38.383Z,62.31
2023-03-15T09:51:11.954Z,62.76
2023-03-15T09:52:47.367Z,63.40
2023-03-15T09:54:31.398Z,60.19
2023-03-15T09:56:15.588Z,55.43
2023-03-15T09:57:59.970Z,53.72
2023-03-15T09:59:44.079Z,54.41
2023-03-15T10:01:28.213Z,56.30
2023-03-15T10:03:14.280Z,56.70
2023-03-15T10:05:05.886Z,56.79
2023-03-15T10:06:53.130Z,57.67
2023-03-15T10:08:21.376Z,57.98
2023-03-15T10:10:09.494Z,58.68
2023-03-15T10:11:54.019Z,58.88
2023-03-15T10:13:38.187Z,59.37
2023-03-15T10:15:22.002Z,59.46
2023-03-15T10:16:54.199Z,59.41
2023-03-15T10:18:26.018Z,59.31
2023-03-15T10:20:05.594Z,59.66
2023-03-15T10:21:49.394Z,59.80
2023-03-15T10:23:17.449Z,59.79
2023-03-15T10:25:10.008Z,59.75
2023-03-15T10:26:50.782Z,59.91
2023-03-15T10:28:18.696Z,59.83
2023-03-15T10:30:10.826Z,59.55
2023-03-15T10:32:03.402Z,59.61
2023-03-15T10:33:48.478Z,59.40
2023-03-15T10:35:20.977Z,59.64
2023-03-15T10:37:02.179Z,59.70
2023-03-15T10:38:36.334Z,59.41
2023-03-15T10:40:27.660Z,59.44
2023-03-15T10:42:13.620Z,59.49
2023-03-15T10:43:45.827Z,59.35
2023-03-15T10:45:19.085Z,59.37
2023-03-15T10:46:51.464Z,59.29
2023-03-15T10:48:23.670Z,58.71
2023-03-15T10:49:55.518Z,58.37
2023-03-15T10:51:30.253Z,58.84
2023-03-15T10:52:55.134Z,59.00
2023-03-15T10:54:17.914Z,58.75
2023-03-15T10:55:41.451Z,58.96
2023-03-15T10:57:04.871Z,59.18
2023-03-15T10:59:05.546Z,59.39
2023-03-15T11:00:53.871Z,59.10
2023-03-15T11:02:14.421Z,58.44
2023-03-15T11:03:57.428Z,58.37
2023-03-15T11:05:42.880Z,58.41
2023-03-15T11:07:15.163Z,59.14
2023-03-15T11:09:03.921Z,59.61
2023-03-15T11:10:24.638Z,59.39
2023-03-15T11:11:55.026Z,58.49
2023-03-15T11:13:29.187Z,58.15
2023-03-15T11:15:12.766Z,57.93
2023-03-15T11:16:52.117Z,58.32
2023-03-15T11:18:24.075Z,58.55
2023-03-15T11:20:10.633Z,58.67
2023-03-15T11:21:40.893Z,58.51
2023-03-15T11:23:15.736Z,58.23
2023-03-15T11:24:43.215Z,58.57
2023-03-15T11:26:03.888Z,58.63
2023-03-15T11:27:24.246Z,58.68
2023-03-15T11:29:04.710Z,58.83
2023-03-15T11:30:49.164Z,58.77
2023-03-15T11:32:26.259Z,58.42
2023-03-15T11:33:51.591Z,58.21
2023-03-15T11:35:25.479Z,57.43
2023-03-15T11:37:08.917Z,56.63
2023-03-15T11:38:32.594Z,57.01
2023-03-15T11:40:17.250Z,57.48
2023-03-15T11:41:55.265Z,57.46
2023-03-15T11:43:27.529Z,57.65
2023-03-15T11:44:59.324Z,57.19
2023-03-15T11:46:39.341Z,57.40
2023-03-15T11:48:07.333Z,57.62
2023-03-15T11:49:46.957Z,57.85
2023-03-15T11:51:18.761Z,57.93
2023-03-15T11:52:52.982Z,57.62
2023-03-15T11:54:21.224Z,57.98
2023-03-15T11:56:00.981Z,57.88
2023-03-15T11:57:26.175Z,58.07
2023-03-15T11:59:13.785Z,57.75
2023-03-15T12:00:52.993Z,56.87
2023-03-15T12:02:19.206Z,56.38
2023-03-15T12:04:07.188Z,56.40
2023-03-15T12:05:50.883Z,56.49
2023-03-15T12:07:19.017Z,56.92
2023-03-15T12:08:49.885Z,57.00
2023-03-15T12:10:19.857Z,57.39
2023-03-15T12:12:00.281Z,57.23
2023-03-15T12:13:43.834Z,56.77
2023-03-15T12:15:16.043Z,56.70
2023-03-15T12:16:36.233Z,56.19
2023-03-15T12:18:15.578Z,55.70
2023-03-15T12:19:35.469Z,55.57
2023-03-15T12:20:58.536Z,55.53
2023-03-15T12:22:26.614Z,55.38
2023-03-15T12:23:58.887Z,55.17
2023-03-15T12:25:31.640Z,55.58
2023-03-15T12:27:16.180Z,55.08
2023-03-15T12:28:44.278Z,55.11
2023-03-15T12:30:16.314Z,55.38
2023-03-15T12:31:55.798Z,55.45
2023-03-15T12:33:18.968Z,55.09
2023-03-15T12:34:55.134Z,54.88
2023-03-15T12:36:39.141Z,55.33
2023-03-15T12:38:22.761Z,55.05
2023-03-15T12:40:12.026Z,54.49
2023-03-15T12:41:55.619Z,54.31
2023-03-15T12:43:27.910Z,54.25
2023-03-15T12:45:12.031Z,54.25
2023-03-15T12:46:43.908Z,54.68
2023-03-15T12:48:18.489Z,54.94
2023-03-15T12:49:41.505Z,54.81
2023-03-15T12:51:03.196Z,55.15
2023-03-15T12:52:25.782Z,55.01
2023-03-15T12:53:47.007Z,54.97
2023-03-15T12:55:18.894Z,54.94
2023-03-15T12:56:50.636Z,55.32
2023-03-15T12:58:20.693Z,55.51
2023-03-15T13:00:00.108Z,55.79
2023-03-15T13:01:26.071Z,55.66
2023-03-15T13:03:10.333Z,56.08
2023-03-15T13:04:51.430Z,55.96
2023-03-15T13:06:23.817Z,56.13
2023-03-15T13:08:07.711Z,56.26
2023-03-15T13:09:41.246Z,56.70
2023-03-15T13:11:25.170Z,56.80
2023-03-15T13:13:06.899Z,57.04
2023-03-15T13:14:34.888Z,57.18
2023-03-15T13:16:09.273Z,57.45
2023-03-15T13:17:54.225Z,57.72
2023-03-15T13:19:14.929Z,57.57
2023-03-15T13:20:47.455Z,57.16
2023-03-15T13:22:21.786Z,56.97
2023-03-15T13:23:53.868Z,57.40
2023-03-15T13:25:33.482Z,56.99
2023-03-15T13:27:08.896Z,56.74
2023-03-15T13:29:01.406Z,56.85
2023-03-15T13:30:29.693Z,56.10
2023-03-15T13:31:52.820Z,55.98
2023-03-15T13:33:22.888Z,55.63
2023-03-15T13:34:55.022Z,55.60
2023-03-15T13:36:25.266Z,55.23
2023-03-15T13:37:59.669Z,53.84
2023-03-15T13:39:29.245Z,53.60
2023-03-15T13:41:01.109Z,53.38
2023-03-15T13:42:34.759Z,53.65
2023-03-15T13:44:18.833Z,53.88
2023-03-15T13:45:53.179Z,54.23
2023-03-15T13:47:25.593Z,54.46
2023-03-15T13:48:57.670Z,54.60
2023-03-15T13:50:30.457Z,54.35
2023-03-15T13:52:13.923Z,54.54
2023-03-15T13:53:50.226Z,54.58
2023-03-15T13:55:22.735Z,54.66
2023-03-15T13:57:06.723Z,54.91
2023-03-15T13:58:34.874Z,55.05
2023-03-15T14:00:07.867Z,55.11
2023-03-15T14:01:42.619Z,55.49
2023-03-15T14:03:26.533Z,55.99
2023-03-15T14:04:51.161Z,56.42
2023-03-15T14:06:25.993Z,56.47
2023-03-15T14:07:59.169Z,56.50
2023-03-15T14:09:34.443Z,56.64
2023-03-15T14:11:19.143Z,56.86
2023-03-15T14:13:03.263Z,56.81
2023-03-15T14:14:37.691Z,56.82
2023-03-15T14:16:17.329Z,57.14
2023-03-15T14:17:58.898Z,56.70
2023-03-15T14:19:42.795Z,56.01
2023-03-15T14:21:05.895Z,55.98
2023-03-15T14:22:40.244Z,55.79
2023-03-15T14:24:24.149Z,55.87
2023-03-15T14:25:56.281Z,56.18
2023-03-15T14:27:30.806Z,55.56
2023-03-15T14:29:15.006Z,55.22
2023-03-15T14:30:55.891Z,55.25
2023-03-15T14:32:28.341Z,54.76
2023-03-15T14:34:15.894Z,54.73
2023-03-15T14:35:38.424Z,54.50
2023-03-15T14:37:11.073Z,54.29
2023-03-15T14:38:45.086Z,54.24
2023-03-15T14:40:19.388Z,54.78
2023-03-15T14:41:46.902Z,55.09
2023-03-15T14:43:30.972Z,54.93
2023-03-15T14:45:02.944Z,55.16
2023-03-15T14:46:25.886Z,55.24
2023-03-15T14:47:59.340Z,55.40
2023-03-15T14:49:51.821Z,55.41
2023-03-15T14:51:31.784Z,55.41
2023-03-15T14:53:15.479Z,55.60
2023-03-15T14:54:55.877Z,56.53
2023-03-15T14:56:40.039Z,55.76
2023-03-15T14:58:08.334Z,55.91
2023-03-15T14:59:30.589Z,55.95
2023-03-15T15:00:50.987Z,55.93
2023-03-15T15:02:21.734Z,55.69
2023-03-15T15:03:56.810Z,55.92
2023-03-15T15:05:48.919Z,55.98
2023-03-15T15:07:24.547Z,56.10
2023-03-15T15:08:59.186Z,56.11
2023-03-15T15:10:50.816Z,56.02
2023-03-15T15:12:22.950Z,56.11
2023-03-15T15:14:06.319Z,56.03
2023-03-15T15:15:26.683Z,56.03
2023-03-15T15:16:47.532Z,56.02
2023-03-15T15:18:08.246Z,56.06
2023-03-15T15:19:54.412Z,55.99
2023-03-15T15:21:34.332Z,55.93
2023-03-15T15:23:06.599Z,56.16
2023-03-15T15:24:39.098Z,56.07
2023-03-15T15:26:13.925Z,56.10
2023-03-15T15:28:01.213Z,56.18
2023-03-15T15:29:33.862Z,56.26
2023-03-15T15:31:13.714Z,56.30
2023-03-15T15:33:00.978Z,56.46
2023-03-15T15:34:45.015Z,57.04
2023-03-15T15:36:19.235Z,57.25
2023-03-15T15:37:58.846Z,57.16
2023-03-15T15:39:51.904Z,57.10
2023-03-15T15:41:24.347Z,57.49
2023-03-15T15:42:58.971Z,57.69
2023-03-15T15:44:26.767Z,57.82
2023-03-15T15:46:10.712Z,57.86
2023-03-15T15:47:42.811Z,57.97
2023-03-15T15:49:26.658Z,58.21
2023-03-15T15:50:58.686Z,58.85
2023-03-15T15:52:51.866Z,58.87
2023-03-15T15:54:35.916Z,58.83
2023-03-15T15:56:20.049Z,58.84
2023-03-15T15:57:51.872Z,58.97
2023-03-15T15:59:31.708Z,59.09
2023-03-15T16:01:04.617Z,59.04
2023-03-15T16:02:49.157Z,59.13
2023-03-15T16:04:32.815Z,59.32
2023-03-15T16:06:05.167Z,59.64
2023-03-15T16:07:39.323Z,59.72
2023-03-15T16:09:00.155Z,59.54
2023-03-15T16:10:46.403Z,59.65
2023-03-15T16:12:18.836Z,59.89
2023-03-15T16:13:59.283Z,59.99
2023-03-15T16:15:39.048Z,59.85
2023-03-15T16:17:14.341Z,59.80
2023-03-15T16:18:46.503Z,59.96
2023-03-15T16:20:08.441Z,59.85
2023-03-15T16:21:51.761Z,60.00
2023-03-15T16:23:12.411Z,59.94
2023-03-15T16:24:51.606Z,60.30
2023-03-15T16:26:24.165Z,60.27
2023-03-15T16:28:16.855Z,60.68
2023-03-15T16:29:44.894Z,60.84
2023-03-15T16:31:08.395Z,60.54
2023-03-15T16:32:52.307Z,60.60
2023-03-15T16:34:13.258Z,60.63
2023-03-15T16:35:37.820Z,60.78
2023-03-15T16:37:11.224Z,60.77
2023-03-15T16:38:55.361Z,61.05
2023-03-15T16:40:24.579Z,60.44
2023-03-15T16:42:08.763Z,60.52
2023-03-15T16:43:39.307Z,60.55
2023-03-15T16:45:11.591Z,60.80
2023-03-15T16:46:36.326Z,60.72
2023-03-15T16:48:19.975Z,60.84
2023-03-15T16:49:59.914Z,60.86
2023-03-15T16:51:23.243Z,61.03
2023-03-15T16:52:55.809Z,61.01
2023-03-15T16:54:40.651Z,61.24
2023-03-15T16:56:07.120Z,61.34
2023-03-15T16:57:30.527Z,61.30
2023-03-15T16:58:53.261Z,61.46
2023-03-15T17:00:37.011Z,61.75
2023-03-15T17:02:17.938Z,61.96
2023-03-15T17:04:02.673Z,61.85
2023-03-15T17:05:32.670Z,62.07
2023-03-15T17:07:16.338Z,63.05
2023-03-15T17:09:00.473Z,63.73
2023-03-15T17:10:41.075Z,60.91
2023-03-15T17:12:13.127Z,56.46
2023-03-15T17:13:44.761Z,54.80
2023-03-15T17:15:16.458Z,54.37
2023-03-15T17:16:55.942Z,55.66
2023-03-15T17:18:29.994Z,57.08
2023-03-15T17:20:17.478Z,58.35
2023-03-15T17:21:57.764Z,59.51
2023-03-15T17:23:41.296Z,60.86
2023-03-15T17:25:06.666Z,61.79
2023-03-15T17:26:38.305Z,62.34
2023-03-15T17:27:59.654Z,63.64
2023-03-15T17:29:33.857Z,63.73
2023-03-15T17:31:14.074Z,61.17
2023-03-15T17:32:39.954Z,56.78
2023-03-15T17:34:08.057Z,55.00
2023-03-15T17:35:36.906Z,55.21
2023-03-15T17:37:00.404Z,56.35
2023-03-15T17:38:40.449Z,57.94
2023-03-15T17:40:20.706Z,59.43
2023-03-15T17:41:48.345Z,60.60
2023-03-15T17:43:19.174Z,61.93
2023-03-15T17:44:58.621Z,63.73
2023-03-15T17:46:19.742Z,64.40
2023-03-15T17:47:44.917Z,62.16
2023-03-15T17:49:20.099Z,59.06
2023-03-15T17:50:52.143Z,55.77
2023-03-15T17:52:27.105Z,55.47
2023-03-15T17:53:59.144Z,56.59
2023-03-15T17:55:39.620Z,57.73
2023-03-15T17:57:12.174Z,58.95
2023-03-15T17:58:53.862Z,59.95
2023-03-15T18:00:33.629Z,61.60
2023-03-15T18:02:01.858Z,63.01
2023-03-15T18:03:34.058Z,64.01
2023-03-15T18:04:56.959Z,62.39
2023-03-15T18:06:32.477Z,59.17
2023-03-15T18:08:16.160Z,55.48
2023-03-15T18:09:57.884Z,55.25
2023-03-15T18:11:50.357Z,56.73
2023-03-15T18:13:34.274Z,58.48
2023-03-15T18:15:17.894Z,60.02
2023-03-15T18:17:03.207Z,61.47
2023-03-15T18:18:46.845Z,62.52
2023-03-15T18:20:21.136Z,64.89
2023-03-15T18:21:56.586Z,63.66
2023-03-15T18:23:18.878Z,60.12
2023-03-15T18:24:39.294Z,56.90
2023-03-15T18:26:13.338Z,55.32
2023-03-15T18:27:48.204Z,55.89
2023-03-15T18:29:11.128Z,57.29
2023-03-15T18:31:03.271Z,58.70
2023-03-15T18:32:36.223Z,60.18
2023-03-15T18:34:16.295Z,61.23
2023-03-15T18:35:37.163Z,63.16
2023-03-15T18:37:10.924Z,64.54
2023-03-15T18:38:36.031Z,63.00
2023-03-15T18:39:57.894Z,59.88
2023-03-15T18:41:20.485Z,56.69
2023-03-15T18:42:49.166Z,55.07
2023-03-15T18:44:10.095Z,55.83
2023-03-15T18:45:42.066Z,57.13
2023-03-15T18:47:14.661Z,58.49
2023-03-15T18:48:58.367Z,59.63
2023-03-15T18:50:42.078Z,61.09
2023-03-15T18:52:03.238Z,62.07
2023-03-15T18:53:36.052Z,63.10
2023-03-15T18:54:58.827Z,64.21
2023-03-15T18:56:33.707Z,61.97
2023-03-15T18:58:19.848Z,57.91
2023-03-15T18:59:51.923Z,54.86
2023-03-15T19:01:26.621Z,55.49
2023-03-15T19:02:58.810Z,56.78
2023-03-15T19:04:19.615Z,57.96
2023-03-15T19:05:58.872Z,59.22
2023-03-15T19:07:29.178Z,60.46
2023-03-15T19:09:21.035Z,61.39
2023-03-15T19:10:43.800Z,62.54
2023-03-15T19:12:07.213Z,64.16
2023-03-15T19:14:00.940Z,63.39
2023-03-15T19:15:28.880Z,59.50
2023-03-15T19:17:00.815Z,55.89
2023-03-15T19:18:39.996Z,54.99
2023-03-15T19:20:12.255Z,56.18
2023-03-15T19:21:40.469Z,57.46
2023-03-15T19:23:24.173Z,59.13
2023-03-15T19:25:17.178Z,60.51
2023-03-15T19:27:00.969Z,61.93
2023-03-15T19:28:24.502Z,63.39
2023-03-15T19:29:56.901Z,64.59
2023-03-15T19:31:24.774Z,62.39
2023-03-15T19:32:47.850Z,59.34
2023-03-15T19:34:31.928Z,55.81
2023-03-15T19:36:03.963Z,55.20
2023-03-15T19:37:47.321Z,56.78
2023-03-15T19:39:21.904Z,58.55
2023-03-15T19:41:07.718Z,60.10
2023-03-15T19:42:29.039Z,61.45
2023-03-15T19:44:08.886Z,62.59
2023-03-15T19:46:01.950Z,64.55
2023-03-15T19:47:33.986Z,62.33
2023-03-15T19:49:06.256Z,59.31
2023-03-15T19:50:31.469Z,55.74
2023-03-15T19:52:15.533Z,55.46
2023-03-15T19:53:54.045Z,56.69
2023-03-15T19:55:27.960Z,58.42
2023-03-15T19:57:04.805Z,60.07
2023-03-15T19:58:36.874Z,61.69
2023-03-15T20:00:12.322Z,62.63
2023-03-15T20:01:56.093Z,64.78
2023-03-15T20:03:28.705Z,63.60
2023-03-15T20:05:03.258Z,60.03
2023-03-15T20:06:35.246Z,56.61
2023-03-15T20:08:19.650Z,55.66
2023-03-15T20:09:41.897Z,56.80
2023-03-15T20:11:31.227Z,58.45
2023-03-15T20:13:14.860Z,60.16
2023-03-15T20:15:07.880Z,61.91
2023-03-15T20:16:30.548Z,64.01
2023-03-15T20:18:15.570Z,64.44
2023-03-15T20:19:59.259Z,61.55
2023-03-15T20:21:43.086Z,57.99
2023-03-15T20:23:27.793Z,55.68
2023-03-15T20:25:12.217Z,56.68
2023-03-15T20:27:00.004Z,58.55
2023-03-15T20:28:43.878Z,60.39
2023-03-15T20:30:18.339Z,62.25
2023-03-15T20:31:52.472Z,64.40
2023-03-15T20:33:13.224Z,64.75
2023-03-15T20:34:52.855Z,62.16
2023-03-15T20:36:36.769Z,58.80
2023-03-15T20:38:09.018Z,56.10
2023-03-15T20:39:56.969Z,56.41
2023-03-15T20:41:40.396Z,58.12
2023-03-15T20:43:13.887Z,59.74
2023-03-15T20:44:57.985Z,61.68
2023-03-15T20:46:31.275Z,63.49
2023-03-15T20:47:51.235Z,65.02
2023-03-15T20:49:34.529Z,63.56
2023-03-15T20:51:09.615Z,60.19
2023-03-15T20:52:43.322Z,56.93